createdAt,value
2022-11-21T00:02:27.321Z,8.70
2022-11-21T00:04:55.663Z,8.60
2022-11-21T00:07:25.260Z,8.60
2022-11-21T00:09:53.404Z,8.60
2022-11-21T00:12:21.545Z,8.60
2022-11-21T00:14:49.751Z,8.80
2022-11-21T00:17:19.716Z,8.70
2022-11-21T00:19:47.840Z,8.60
2022-11-21T00:22:15.989Z,8.70
2022-11-21T00:24:52.986Z,8.80
2022-11-21T00:27:25.040Z,8.70
2022-11-21T00:29:53.198Z,8.70
2022-11-21T00:32:21.358Z,8.70
2022-11-21T00:34:49.506Z,8.70
2022-11-21T00:37:17.766Z,8.70
2022-11-21T00:39:47.267Z,8.70
2022-11-21T00:42:16.842Z,8.70
2022-11-21T00:44:44.991Z,9.00
2022-11-21T00:47:13.219Z,8.70
2022-11-21T00:49:41.493Z,8.70
2022-11-21T00:52:09.890Z,8.90
2022-11-21T00:54:38.120Z,8.70
2022-11-21T00:57:07.896Z,8.70
2022-11-21T00:59:36.212Z,8.70
2022-11-21T01:02:07.051Z,8.60
2022-11-21T01:04:36.512Z,8.70
2022-11-21T01:07:04.741Z,8.60
2022-11-21T01:09:33.175Z,8.70
2022-11-21T01:12:01.470Z,8.70
2022-11-21T01:14:31.187Z,8.70
2022-11-21T01:16:59.350Z,8.70
2022-11-21T01:19:27.548Z,8.70
2022-11-21T01:21:57.794Z,8.70
2022-11-21T01:24:29.298Z,8.70
2022-11-21T01:26:57.677Z,8.70
2022-11-21T01:29:26.054Z,9.00
2022-11-21T01:31:55.549Z,8.60
2022-11-21T01:34:23.843Z,8.60
2022-11-21T01:36:52.121Z,8.60
2022-11-21T01:39:20.251Z,8.60
2022-11-21T01:41:48.370Z,8.60
2022-11-21T01:44:20.706Z,8.60
2022-11-21T01:46:49.833Z,8.60
2022-11-21T01:49:21.240Z,8.60
2022-11-21T01:51:55.098Z,8.80
2022-11-21T01:54:27.587Z,8.60
2022-11-21T01:57:02.838Z,8.60
2022-11-21T01:59:34.037Z,8.60
2022-11-21T02:02:04.541Z,8.60
2022-11-21T02:04:36.038Z,8.60
2022-11-21T02:07:07.404Z,8.60
2022-11-21T02:09:40.018Z,8.60
2022-11-21T02:12:13.462Z,8.60
2022-11-21T02:14:44.889Z,8.60
2022-11-21T02:17:13.112Z,8.60
2022-11-21T02:19:51.224Z,8.60
2022-11-21T02:22:28.901Z,8.60
2022-11-21T02:25:05.736Z,8.60
2022-11-21T02:27:34.264Z,8.60
2022-11-21T02:30:04.267Z,8.60
2022-11-21T02:32:35.704Z,8.60
2022-11-21T02:35:04.022Z,8.60
2022-11-21T02:37:33.144Z,8.70
2022-11-21T02:40:09.113Z,8.60
2022-11-21T02:42:41.085Z,8.60
2022-11-21T02:45:15.453Z,8.60
2022-11-21T02:47:44.886Z,8.60
2022-11-21T02:50:16.334Z,8.60
2022-11-21T02:52:44.498Z,8.60
2022-11-21T02:55:15.595Z,8.60
2022-11-21T02:57:44.333Z,8.60
2022-11-21T03:00:13.694Z,8.60
2022-11-21T03:02:42.268Z,8.60
2022-11-21T03:05:13.080Z,8.50
2022-11-21T03:07:46.052Z,8.60
2022-11-21T03:10:17.926Z,8.60
2022-11-21T03:12:46.363Z,8.50
2022-11-21T03:15:16.634Z,8.50
2022-11-21T03:17:45.044Z,8.60
2022-11-21T03:20:13.365Z,8.50
2022-11-21T03:22:41.793Z,8.50
2022-11-21T03:25:10.552Z,8.60
2022-11-21T03:27:40.127Z,8.60
2022-11-21T03:30:09.784Z,8.70
2022-11-21T03:32:38.110Z,8.60
2022-11-21T03:35:09.762Z,8.60
2022-11-21T03:37:37.990Z,8.60
2022-11-21T03:40:07.507Z,8.60
2022-11-21T03:42:35.723Z,8.60
2022-11-21T03:45:08.050Z,8.60
2022-11-21T03:47:39.058Z,8.60
2022-11-21T03:50:08.262Z,8.80
2022-11-21T03:52:36.437Z,8.60
2022-11-21T03:55:04.840Z,8.60
2022-11-21T03:57:33.296Z,8.60
2022-11-21T04:00:01.535Z,8.60
2022-11-21T04:02:31.105Z,8.60
2022-11-21T04:04:59.396Z,8.60
2022-11-21T04:07:30.019Z,8.60
2022-11-21T04:09:58.484Z,8.60
2022-11-21T04:12:26.586Z,8.60
2022-11-21T04:14:54.838Z,8.60
2022-11-21T04:17:23.056Z,8.60
2022-11-21T04:19:52.587Z,8.60
2022-11-21T04:22:20.760Z,8.60
2022-11-21T04:24:48.920Z,8.60
2022-11-21T04:27:19.936Z,8.60
2022-11-21T04:29:48.075Z,8.50
2022-11-21T04:32:16.181Z,8.50
2022-11-21T04:34:44.567Z,8.50
2022-11-21T04:37:14.180Z,8.50
2022-11-21T04:39:42.458Z,8.60
2022-11-21T04:42:10.581Z,8.50
2022-11-21T04:44:38.906Z,8.60
2022-11-21T04:47:07.237Z,8.60
2022-11-21T04:49:35.413Z,8.60
2022-11-21T04:52:03.674Z,8.60
2022-11-21T04:54:33.271Z,8.60
2022-11-21T04:57:01.591Z,8.70
2022-11-21T04:59:29.897Z,8.60
2022-11-21T05:01:57.999Z,8.60
2022-11-21T05:04:26.756Z,8.60
2022-11-21T05:06:55.171Z,8.60
2022-11-21T05:09:23.333Z,8.60
2022-11-21T05:12:10.835Z,8.60
2022-11-21T05:14:39.066Z,8.60
2022-11-21T05:17:07.315Z,8.60
2022-11-21T05:19:35.514Z,8.30
2022-11-21T05:22:04.018Z,8.60
2022-11-21T05:24:32.303Z,8.60
2022-11-21T05:27:01.821Z,8.70
2022-11-21T05:29:30.054Z,8.70
2022-11-21T05:31:58.342Z,8.70
2022-11-21T05:34:26.832Z,8.70
2022-11-21T05:36:57.179Z,8.70
2022-11-21T05:39:25.719Z,8.70
2022-11-21T05:41:57.225Z,8.70
2022-11-21T05:44:30.556Z,8.90
2022-11-21T05:46:59.147Z,8.70
2022-11-21T05:49:29.253Z,8.80
2022-11-21T05:51:57.426Z,8.70
2022-11-21T05:54:25.831Z,8.70
2022-11-21T05:56:54.035Z,8.90
2022-11-21T05:59:22.267Z,8.80
2022-11-21T06:02:09.517Z,8.80
2022-11-21T06:04:37.755Z,8.80
2022-11-21T06:07:06.190Z,8.70
2022-11-21T06:09:34.468Z,8.70
2022-11-21T06:12:04.581Z,8.70
2022-11-21T06:14:33.043Z,8.80
2022-11-21T06:17:02.494Z,8.80
2022-11-21T06:19:30.819Z,8.70
2022-11-21T06:21:59.194Z,8.90
2022-11-21T06:24:27.741Z,8.80
2022-11-21T06:26:56.077Z,8.80
2022-11-21T06:29:24.310Z,8.80
2022-11-21T06:31:52.455Z,8.80
2022-11-21T06:34:21.960Z,8.80
2022-11-21T06:36:50.808Z,8.80
2022-11-21T06:39:18.995Z,8.80
2022-11-21T06:41:50.995Z,8.80
2022-11-21T06:44:19.704Z,8.80
2022-11-21T06:46:51.557Z,8.80
2022-11-21T06:49:22.137Z,8.80
2022-11-21T06:51:53.238Z,8.80
2022-11-21T06:54:21.538Z,8.80
2022-11-21T06:56:52.875Z,8.80
2022-11-21T06:59:21.129Z,8.80
2022-11-21T07:01:49.659Z,8.80
2022-11-21T07:04:18.018Z,8.80
2022-11-21T07:06:47.555Z,8.80
2022-11-21T07:09:32.622Z,8.80
2022-11-21T07:12:21.548Z,8.80
2022-11-21T07:14:51.378Z,8.80
2022-11-21T07:17:19.632Z,8.90
2022-11-21T07:19:47.849Z,8.80
2022-11-21T07:22:17.363Z,8.90
2022-11-21T07:24:45.536Z,9.20
2022-11-21T07:27:13.795Z,8.90
2022-11-21T07:29:42.117Z,8.90
2022-11-21T07:32:10.418Z,8.90
2022-11-21T07:34:38.685Z,8.90
2022-11-21T07:37:06.894Z,8.90
2022-11-21T07:39:36.472Z,8.90
2022-11-21T07:42:04.994Z,8.90
2022-11-21T07:44:33.510Z,9.00
2022-11-21T07:47:02.678Z,8.90
2022-11-21T07:49:31.272Z,9.00
2022-11-21T07:51:59.965Z,9.00
2022-11-21T07:54:28.299Z,9.00
2022-11-21T07:56:57.834Z,9.00
2022-11-21T07:59:26.234Z,9.00
2022-11-21T08:01:54.865Z,9.00
2022-11-21T08:04:23.080Z,9.00
2022-11-21T08:06:51.246Z,9.00
2022-11-21T08:09:19.514Z,9.30
2022-11-21T08:11:47.827Z,9.00
2022-11-21T08:14:17.343Z,9.10
2022-11-21T08:16:45.443Z,9.10
2022-11-21T08:19:13.567Z,9.10
2022-11-21T08:21:41.862Z,9.10
2022-11-21T08:24:14.500Z,9.10
2022-11-21T08:26:42.666Z,9.10
2022-11-21T08:29:11.261Z,9.10
2022-11-21T08:31:40.919Z,9.10
2022-11-21T08:34:14.199Z,9.10
2022-11-21T08:36:42.812Z,9.10
2022-11-21T08:39:10.984Z,9.10
2022-11-21T08:41:56.601Z,9.10
2022-11-21T08:44:24.980Z,9.10
2022-11-21T08:46:54.524Z,9.10
2022-11-21T08:49:25.254Z,9.10
2022-11-21T08:51:53.647Z,9.10
2022-11-21T08:54:23.593Z,9.10
2022-11-21T08:56:52.675Z,9.10
2022-11-21T08:59:20.869Z,9.10
2022-11-21T09:01:49.191Z,9.10
2022-11-21T09:04:18.700Z,9.10
2022-11-21T09:06:48.052Z,9.10
2022-11-21T09:09:19.420Z,9.10
2022-11-21T09:11:52.085Z,9.10
2022-11-21T09:14:37.732Z,9.10
2022-11-21T09:17:23.336Z,9.10
2022-11-21T09:19:52.900Z,9.20
2022-11-21T09:22:21.110Z,9.20
2022-11-21T09:24:49.284Z,9.20
2022-11-21T09:27:17.502Z,9.20
2022-11-21T09:29:49.609Z,9.20
2022-11-21T09:32:22.367Z,9.20
2022-11-21T09:34:51.962Z,9.20
2022-11-21T09:37:20.166Z,9.20
2022-11-21T09:39:49.069Z,9.20
2022-11-21T09:42:47.281Z,9.20
2022-11-21T09:45:20.639Z,9.20
2022-11-21T09:47:50.682Z,9.20
2022-11-21T09:50:30.718Z,9.30
2022-11-21T09:53:04.476Z,9.30
2022-11-21T09:55:40.861Z,9.30
2022-11-21T09:58:19.709Z,9.20
2022-11-21T10:00:47.991Z,9.30
2022-11-21T10:03:20.995Z,9.30
2022-11-21T10:05:56.090Z,9.30
2022-11-21T10:08:44.090Z,9.30
2022-11-21T10:11:20.791Z,9.30
2022-11-21T10:14:05.274Z,9.30
2022-11-21T10:16:46.628Z,9.30
2022-11-21T10:19:25.734Z,9.30
2022-11-21T10:22:09.234Z,9.30
2022-11-21T10:24:45.985Z,9.30
2022-11-21T10:27:18.069Z,9.40
2022-11-21T10:29:53.245Z,9.40
2022-11-21T10:32:26.609Z,9.40
2022-11-21T10:34:59.202Z,9.40
2022-11-21T10:37:36.157Z,9.40
2022-11-21T10:40:22.720Z,9.40
2022-11-21T10:42:55.740Z,9.40
2022-11-21T10:45:23.428Z,9.40
2022-11-21T10:47:53.265Z,9.50
2022-11-21T10:50:42.839Z,9.80
2022-11-21T10:53:36.080Z,9.50
2022-11-21T10:56:07.226Z,9.50
2022-11-21T10:58:43.959Z,9.50
2022-11-21T11:01:27.715Z,9.50
2022-11-21T11:04:27.772Z,9.60
2022-11-21T11:06:59.329Z,9.60
2022-11-21T11:09:31.622Z,9.50
2022-11-21T11:12:46.951Z,9.60
2022-11-21T11:15:20.361Z,9.60
2022-11-21T11:17:53.187Z,9.60
2022-11-21T11:20:37.802Z,9.60
2022-11-21T11:23:33.158Z,9.60
2022-11-21T11:26:22.455Z,9.60
2022-11-21T11:28:50.879Z,9.70
2022-11-21T11:31:19.113Z,9.60
2022-11-21T11:33:53.277Z,9.70
2022-11-21T11:36:36.987Z,9.70
2022-11-21T11:39:16.639Z,9.70
2022-11-21T11:42:23.162Z,9.70
2022-11-21T11:45:22.457Z,9.80
2022-11-21T11:47:55.732Z,9.80
2022-11-21T11:50:27.939Z,9.80
2022-11-21T11:53:05.159Z,9.90
2022-11-21T11:55:38.836Z,9.80
2022-11-21T11:58:19.433Z,9.90
2022-11-21T12:00:51.586Z,9.90
2022-11-21T12:03:25.369Z,9.90
2022-11-21T12:06:04.755Z,9.90
2022-11-21T12:08:43.795Z,10.00
2022-11-21T12:11:50.793Z,10.00
2022-11-21T12:14:55.171Z,10.00
2022-11-21T12:17:32.336Z,10.00
2022-11-21T12:20:04.004Z,10.10
2022-11-21T12:22:32.258Z,10.10
2022-11-21T12:25:00.577Z,10.10
2022-11-21T12:27:32.756Z,10.20
2022-11-21T12:30:21.437Z,10.20
2022-11-21T12:32:59.433Z,10.20
2022-11-21T12:35:45.511Z,10.20
2022-11-21T12:38:28.048Z,10.40
2022-11-21T12:41:27.842Z,10.20
2022-11-21T12:44:06.976Z,10.30
2022-11-21T12:46:47.096Z,10.30
2022-11-21T12:49:52.001Z,10.30
2022-11-21T12:52:42.028Z,10.30
2022-11-21T12:55:18.970Z,10.40
2022-11-21T12:58:06.140Z,10.40
2022-11-21T13:00:54.089Z,10.40
2022-11-21T13:03:44.546Z,10.40
2022-11-21T13:06:19.735Z,10.40
2022-11-21T13:08:53.955Z,10.40
2022-11-21T13:11:48.716Z,10.50
2022-11-21T13:14:26.331Z,10.40
2022-11-21T13:17:12.601Z,10.50
2022-11-21T13:19:51.333Z,10.50
2022-11-21T13:22:55.138Z,10.50
2022-11-21T13:25:47.896Z,10.50
2022-11-21T13:28:38.282Z,10.50
2022-11-21T13:31:29.365Z,10.50
2022-11-21T13:34:00.631Z,10.50
2022-11-21T13:36:45.161Z,10.50
2022-11-21T13:39:28.973Z,10.50
2022-11-21T13:42:20.760Z,10.50
2022-11-21T13:44:49.983Z,10.50
2022-11-21T13:48:11.817Z,10.50
2022-11-21T13:51:02.465Z,10.50
2022-11-21T13:54:05.174Z,10.50
2022-11-21T13:56:39.658Z,10.50
2022-11-21T13:59:27.032Z,10.50
2022-11-21T14:02:12.744Z,10.60
2022-11-21T14:04:55.245Z,10.50
2022-11-21T14:07:30.129Z,10.50
2022-11-21T14:10:02.743Z,10.60
2022-11-21T14:12:37.294Z,10.50
2022-11-21T14:15:24.993Z,10.50
2022-11-21T14:17:56.009Z,10.50
2022-11-21T14:20:27.483Z,10.50
2022-11-21T14:22:59.301Z,10.50
2022-11-21T14:25:36.200Z,10.50
2022-11-21T14:28:09.687Z,10.50
2022-11-21T14:30:39.632Z,10.60
2022-11-21T14:33:29.046Z,10.50
2022-11-21T14:36:01.520Z,10.50
2022-11-21T14:38:31.626Z,10.50
2022-11-21T14:41:27.917Z,10.50
2022-11-21T14:44:19.958Z,10.50
2022-11-21T14:46:49.301Z,10.50
2022-11-21T14:49:25.659Z,10.50
2022-11-21T14:52:16.280Z,10.50
2022-11-21T14:55:13.503Z,10.50
2022-11-21T14:57:42.369Z,10.40
2022-11-21T15:00:36.601Z,10.40
2022-11-21T15:03:04.470Z,10.50
2022-11-21T15:06:01.417Z,10.40
2022-11-21T15:11:13.125Z,10.40
2022-11-21T15:14:12.225Z,10.40
2022-11-21T15:16:32.768Z,10.40
2022-11-21T15:19:01.269Z,10.40
2022-11-21T15:21:30.587Z,10.40
2022-11-21T15:23:58.928Z,10.40
2022-11-21T15:26:31.057Z,10.40
2022-11-21T15:29:01.957Z,10.40
2022-11-21T15:31:30.199Z,10.40
2022-11-21T15:34:33.072Z,10.40
2022-11-21T15:37:05.039Z,10.30
2022-11-21T15:39:35.820Z,10.30
2022-11-21T15:42:30.046Z,10.40
2022-11-21T15:45:01.626Z,10.30
2022-11-21T15:47:30.106Z,10.30
2022-11-21T15:49:58.434Z,10.30
2022-11-21T15:52:27.014Z,10.50
2022-11-21T15:54:55.475Z,10.30
2022-11-21T15:57:23.751Z,10.30
2022-11-21T15:59:53.138Z,10.30
2022-11-21T16:02:22.693Z,10.30
2022-11-21T16:04:50.866Z,10.20
2022-11-21T16:07:19.175Z,10.70
2022-11-21T16:09:47.986Z,10.30
2022-11-21T16:12:16.427Z,10.30
2022-11-21T16:14:44.680Z,10.30
2022-11-21T16:17:12.900Z,10.30
2022-11-21T16:19:42.488Z,10.30
2022-11-21T16:22:10.688Z,10.30
2022-11-21T16:24:41.648Z,10.30
2022-11-21T16:27:09.859Z,10.30
2022-11-21T16:29:38.359Z,10.30
2022-11-21T16:32:07.043Z,10.20
2022-11-21T16:34:35.301Z,10.30
2022-11-21T16:37:07.564Z,10.30
2022-11-21T16:39:36.278Z,10.30
2022-11-21T16:42:05.232Z,10.20
2022-11-21T16:44:33.414Z,10.30
2022-11-21T16:47:07.859Z,10.20
2022-11-21T16:49:36.831Z,10.30
2022-11-21T16:52:06.460Z,10.20
2022-11-21T16:54:34.745Z,10.30
2022-11-21T16:57:03.149Z,10.20
2022-11-21T16:59:32.338Z,10.20
2022-11-21T17:02:00.595Z,10.20
2022-11-21T17:04:32.035Z,10.20
2022-11-21T17:07:01.908Z,10.20
2022-11-21T17:09:31.625Z,10.20
2022-11-21T17:12:00.328Z,10.20
2022-11-21T17:14:28.883Z,10.20
2022-11-21T17:16:59.733Z,10.20
2022-11-21T17:19:28.070Z,10.30
2022-11-21T17:21:56.404Z,10.30
2022-11-21T17:24:25.210Z,10.30
2022-11-21T17:26:57.261Z,10.30
2022-11-21T17:29:28.309Z,10.20
2022-11-21T17:31:56.526Z,10.30
2022-11-21T17:34:29.764Z,10.30
2022-11-21T17:37:00.791Z,10.20
2022-11-21T17:39:30.101Z,10.60
2022-11-21T17:42:01.412Z,10.20
2022-11-21T17:44:31.327Z,10.30
2022-11-21T17:47:01.908Z,10.20
2022-11-21T17:49:36.978Z,10.30
2022-11-21T17:52:08.379Z,10.30
2022-11-21T17:54:36.876Z,10.30
2022-11-21T17:57:06.714Z,10.30
2022-11-21T17:59:34.985Z,10.30
2022-11-21T18:02:03.343Z,10.30
2022-11-21T18:04:31.968Z,10.30
2022-11-21T18:07:00.419Z,10.30
2022-11-21T18:09:31.926Z,10.30
2022-11-21T18:12:00.118Z,10.20
2022-11-21T18:14:32.078Z,10.30
2022-11-21T18:17:00.336Z,10.20
2022-11-21T18:19:30.321Z,10.30
2022-11-21T18:22:00.628Z,10.30
2022-11-21T18:24:29.593Z,10.30
2022-11-21T18:26:58.019Z,10.30
2022-11-21T18:29:36.251Z,10.20
2022-11-21T18:32:07.377Z,10.20
2022-11-21T18:34:35.732Z,10.30
2022-11-21T18:37:03.972Z,10.30
2022-11-21T18:39:32.593Z,10.20
2022-11-21T18:42:00.951Z,10.20
2022-11-21T18:44:31.652Z,10.20
2022-11-21T18:46:59.959Z,10.20
2022-11-21T18:49:30.025Z,10.30
2022-11-21T18:51:58.394Z,10.20
2022-11-21T18:54:26.630Z,10.20
2022-11-21T18:56:55.027Z,10.30
2022-11-21T18:59:23.220Z,10.30
2022-11-21T19:01:54.608Z,10.20
2022-11-21T19:04:23.458Z,10.30
2022-11-21T19:06:52.986Z,10.30
2022-11-21T19:09:23.476Z,10.20
2022-11-21T19:11:53.588Z,10.30
2022-11-21T19:14:21.799Z,10.30
2022-11-21T19:16:50.011Z,10.30
2022-11-21T19:19:34.964Z,10.30
2022-11-21T19:22:06.214Z,10.30
2022-11-21T19:24:34.532Z,10.30
2022-11-21T19:27:03.208Z,10.30
2022-11-21T19:29:33.021Z,10.30
2022-11-21T19:32:01.502Z,10.30
2022-11-21T19:34:29.723Z,10.30
2022-11-21T19:36:57.926Z,10.30
2022-11-21T19:39:31.003Z,10.30
2022-11-21T19:41:59.707Z,10.60
2022-11-21T19:44:27.873Z,10.30
2022-11-21T19:46:56.091Z,10.30
2022-11-21T19:49:24.175Z,10.20
2022-11-21T19:51:52.444Z,10.30
2022-11-21T19:54:20.746Z,10.30
2022-11-21T19:56:50.606Z,10.20
2022-11-21T19:59:18.835Z,10.20
2022-11-21T20:01:52.155Z,10.20
2022-11-21T20:04:21.120Z,10.20
2022-11-21T20:06:49.792Z,10.20
2022-11-21T20:09:19.877Z,10.20
2022-11-21T20:11:51.204Z,10.30
2022-11-21T20:14:22.737Z,10.20
2022-11-21T20:16:53.136Z,10.30
2022-11-21T20:19:23.980Z,10.30
2022-11-21T20:21:52.706Z,10.30
2022-11-21T20:24:23.205Z,10.20
2022-11-21T20:26:53.447Z,10.30
2022-11-21T20:29:21.704Z,10.20
2022-11-21T20:31:49.871Z,10.30
2022-11-21T20:34:18.067Z,10.20
2022-11-21T20:36:46.836Z,10.20
2022-11-21T20:39:16.726Z,10.30
2022-11-21T20:41:46.445Z,10.20
2022-11-21T20:47:09.510Z,10.30
2022-11-21T20:49:37.665Z,10.20
2022-11-21T20:54:54.447Z,10.20
2022-11-21T20:57:22.624Z,10.30
2022-11-21T20:59:52.244Z,10.20
2022-11-21T21:02:20.430Z,10.20
2022-11-21T21:04:48.647Z,10.20
2022-11-21T21:07:16.839Z,10.20
2022-11-21T21:09:45.233Z,10.20
2022-11-21T21:12:13.568Z,10.20
2022-11-21T21:14:41.718Z,10.20
2022-11-21T21:17:11.341Z,10.20
2022-11-21T21:19:39.581Z,10.20
2022-11-21T21:22:09.122Z,10.30
2022-11-21T21:24:37.898Z,10.20
2022-11-21T21:27:06.207Z,10.20
2022-11-21T21:29:34.618Z,10.20
2022-11-21T21:32:02.962Z,10.20
2022-11-21T21:34:53.183Z,10.20
2022-11-21T21:37:24.719Z,10.20
2022-11-21T21:39:52.998Z,10.20
2022-11-21T21:42:21.340Z,10.20
2022-11-21T21:44:49.565Z,10.20
2022-11-21T21:47:21.854Z,10.20
2022-11-21T21:49:52.344Z,10.20
2022-11-21T21:52:20.927Z,10.20
2022-11-21T21:54:49.609Z,10.20
2022-11-21T21:57:17.902Z,10.20
2022-11-21T21:59:46.235Z,10.20
2022-11-21T22:02:14.728Z,10.20
2022-11-21T22:04:45.953Z,10.30
2022-11-21T22:07:19.231Z,10.30
2022-11-21T22:09:48.374Z,10.20
2022-11-21T22:12:16.966Z,10.20
2022-11-21T22:14:45.597Z,10.20
2022-11-21T22:17:13.978Z,10.20
2022-11-21T22:19:42.709Z,10.20
2022-11-21T22:22:11.234Z,10.20
2022-11-21T22:24:41.428Z,10.20
2022-11-21T22:27:10.075Z,10.20
2022-11-21T22:29:38.617Z,10.20
2022-11-21T22:32:07.584Z,10.20
2022-11-21T22:34:36.088Z,10.20
2022-11-21T22:37:04.568Z,10.20
2022-11-21T22:39:34.060Z,10.60
2022-11-21T22:42:04.036Z,10.20
2022-11-21T22:44:32.658Z,10.20
2022-11-21T22:47:01.246Z,10.20
2022-11-21T22:49:31.316Z,10.20
2022-11-21T22:51:59.611Z,10.20
2022-11-21T22:54:27.930Z,10.20
2022-11-21T22:56:56.960Z,10.20
2022-11-21T22:59:26.466Z,10.40
2022-11-21T23:01:54.585Z,10.20
2022-11-21T23:04:22.902Z,10.20
2022-11-21T23:06:51.108Z,10.20
2022-11-21T23:09:19.289Z,10.20
2022-11-21T23:11:47.476Z,10.20
2022-11-21T23:14:15.937Z,10.20
2022-11-21T23:16:45.573Z,10.20
2022-11-21T23:19:13.751Z,10.20
2022-11-21T23:21:41.967Z,10.20
2022-11-21T23:24:10.319Z,10.20
2022-11-21T23:26:38.484Z,10.20
2022-11-21T23:29:08.768Z,10.20
2022-11-21T23:31:37.366Z,10.20
2022-11-21T23:34:06.968Z,10.20
2022-11-21T23:36:35.259Z,10.20
2022-11-21T23:39:03.797Z,10.20
2022-11-21T23:41:31.985Z,10.50
2022-11-21T23:44:00.255Z,10.20
2022-11-21T23:46:28.826Z,10.20
2022-11-21T23:48:57.093Z,10.20
2022-11-21T23:51:26.629Z,10.20
2022-11-21T23:53:57.070Z,10.10
2022-11-21T23:56:25.251Z,10.10
2022-11-21T23:58:56.092Z,10.10
